sensor_id;sensor_type;location;lat;lon;timestamp;temperature;humidity
46816;DHT22;32787;53.316;8.670;2024-03-06T00:02:22;3.50;88.20
46816;DHT22;32787;53.316;8.670;2024-03-06T00:04:48;3.50;88.20
46816;DHT22;32787;53.316;8.670;2024-03-06T00:07:14;3.50;88.10
46816;DHT22;32787;53.316;8.670;2024-03-06T00:09:39;3.50;88.10
46816;DHT22;32787;53.316;8.670;2024-03-06T00:12:05;3.50;88.30
46816;DHT22;32787;53.316;8.670;2024-03-06T00:14:31;3.50;88.20
46816;DHT22;32787;53.316;8.670;2024-03-06T00:16:57;3.40;88.30
46816;DHT22;32787;53.316;8.670;2024-03-06T00:19:23;3.40;88.40
46816;DHT22;32787;53.316;8.670;2024-03-06T00:21:49;3.40;88.60
46816;DHT22;32787;53.316;8.670;2024-03-06T00:24:15;3.40;88.50
46816;DHT22;32787;53.316;8.670;2024-03-06T00:26:44;3.40;88.60
46816;DHT22;32787;53.316;8.670;2024-03-06T00:29:10;3.40;88.60
46816;DHT22;32787;53.316;8.670;2024-03-06T00:31:37;3.40;88.50
46816;DHT22;32787;53.316;8.670;2024-03-06T00:34:03;3.40;88.40
46816;DHT22;32787;53.316;8.670;2024-03-06T00:36:29;3.40;88.60
46816;DHT22;32787;53.316;8.670;2024-03-06T00:38:54;3.30;88.70
46816;DHT22;32787;53.316;8.670;2024-03-06T00:41:20;3.30;88.60
46816;DHT22;32787;53.316;8.670;2024-03-06T00:43:45;3.30;88.60
46816;DHT22;32787;53.316;8.670;2024-03-06T00:46:11;3.30;88.70
46816;DHT22;32787;53.316;8.670;2024-03-06T00:48:37;3.30;88.70
46816;DHT22;32787;53.316;8.670;2024-03-06T00:51:06;3.40;88.60
46816;DHT22;32787;53.316;8.670;2024-03-06T00:53:34;3.30;88.70
46816;DHT22;32787;53.316;8.670;2024-03-06T00:56:00;3.20;89.00
46816;DHT22;32787;53.316;8.670;2024-03-06T00:58:26;3.30;88.90
46816;DHT22;32787;53.316;8.670;2024-03-06T01:00:51;3.30;89.10
46816;DHT22;32787;53.316;8.670;2024-03-06T01:03:17;3.30;89.00
46816;DHT22;32787;53.316;8.670;2024-03-06T01:05:43;3.30;89.10
46816;DHT22;32787;53.316;8.670;2024-03-06T01:08:08;3.20;89.20
46816;DHT22;32787;53.316;8.670;2024-03-06T01:10:34;3.20;89.30
46816;DHT22;32787;53.316;8.670;2024-03-06T01:13:00;3.20;89.30
46816;DHT22;32787;53.316;8.670;2024-03-06T01:15:25;3.30;89.10
46816;DHT22;32787;53.316;8.670;2024-03-06T01:17:51;3.30;89.10
46816;DHT22;32787;53.316;8.670;2024-03-06T01:20:16;3.30;88.90
46816;DHT22;32787;53.316;8.670;2024-03-06T01:22:43;3.30;88.90
46816;DHT22;32787;53.316;8.670;2024-03-06T01:25:09;3.30;88.90
46816;DHT22;32787;53.316;8.670;2024-03-06T01:27:35;3.30;89.00
46816;DHT22;32787;53.316;8.670;2024-03-06T01:30:00;3.40;88.70
46816;DHT22;32787;53.316;8.670;2024-03-06T01:32:26;3.30;88.80
46816;DHT22;32787;53.316;8.670;2024-03-06T01:34:51;3.40;88.60
46816;DHT22;32787;53.316;8.670;2024-03-06T01:37:17;3.30;88.60
46816;DHT22;32787;53.316;8.670;2024-03-06T01:39:43;3.30;88.80
46816;DHT22;32787;53.316;8.670;2024-03-06T01:42:09;3.30;88.80
46816;DHT22;32787;53.316;8.670;2024-03-06T01:44:35;3.20;88.90
46816;DHT22;32787;53.316;8.670;2024-03-06T01:47:00;3.20;88.90
46816;DHT22;32787;53.316;8.670;2024-03-06T01:49:26;3.30;89.00
46816;DHT22;32787;53.316;8.670;2024-03-06T01:51:55;3.20;88.70
46816;DHT22;32787;53.316;8.670;2024-03-06T01:54:21;3.20;88.60
46816;DHT22;32787;53.316;8.670;2024-03-06T01:56:49;3.20;88.80
46816;DHT22;32787;53.316;8.670;2024-03-06T01:59:17;3.20;88.90
46816;DHT22;32787;53.316;8.670;2024-03-06T02:01:43;3.20;88.80
46816;DHT22;32787;53.316;8.670;2024-03-06T02:04:09;3.10;88.90
46816;DHT22;32787;53.316;8.670;2024-03-06T02:06:38;3.20;88.90
46816;DHT22;32787;53.316;8.670;2024-03-06T02:09:04;3.20;88.90
46816;DHT22;32787;53.316;8.670;2024-03-06T02:11:32;3.20;88.80
46816;DHT22;32787;53.316;8.670;2024-03-06T02:13:58;3.20;88.80
46816;DHT22;32787;53.316;8.670;2024-03-06T02:16:24;3.20;88.70
46816;DHT22;32787;53.316;8.670;2024-03-06T02:18:59;3.20;88.70
46816;DHT22;32787;53.316;8.670;2024-03-06T02:21:25;3.10;88.80
46816;DHT22;32787;53.316;8.670;2024-03-06T02:23:51;3.20;88.70
46816;DHT22;32787;53.316;8.670;2024-03-06T02:26:21;3.20;88.50
46816;DHT22;32787;53.316;8.670;2024-03-06T02:28:48;3.20;88.50
46816;DHT22;32787;53.316;8.670;2024-03-06T02:31:16;3.20;88.50
46816;DHT22;32787;53.316;8.670;2024-03-06T02:33:43;3.20;88.60
46816;DHT22;32787;53.316;8.670;2024-03-06T02:36:13;3.10;88.70
46816;DHT22;32787;53.316;8.670;2024-03-06T02:38:39;3.10;88.80
46816;DHT22;32787;53.316;8.670;2024-03-06T02:41:05;3.10;88.80
46816;DHT22;32787;53.316;8.670;2024-03-06T02:43:32;3.10;88.60
46816;DHT22;32787;53.316;8.670;2024-03-06T02:45:58;3.10;88.70
46816;DHT22;32787;53.316;8.670;2024-03-06T02:48:24;3.10;88.70
46816;DHT22;32787;53.316;8.670;2024-03-06T02:50:49;3.00;88.80
46816;DHT22;32787;53.316;8.670;2024-03-06T02:53:15;2.90;88.90
46816;DHT22;32787;53.316;8.670;2024-03-06T02:55:40;2.90;88.90
46816;DHT22;32787;53.316;8.670;2024-03-06T02:58:06;2.80;89.20
46816;DHT22;32787;53.316;8.670;2024-03-06T03:00:32;2.80;89.40
46816;DHT22;32787;53.316;8.670;2024-03-06T03:02:58;2.80;89.50
46816;DHT22;32787;53.316;8.670;2024-03-06T03:05:24;2.70;89.70
46816;DHT22;32787;53.316;8.670;2024-03-06T03:07:50;2.60;89.80
46816;DHT22;32787;53.316;8.670;2024-03-06T03:10:16;2.70;89.80
46816;DHT22;32787;53.316;8.670;2024-03-06T03:12:42;2.60;89.90
46816;DHT22;32787;53.316;8.670;2024-03-06T03:15:08;2.60;90.00
46816;DHT22;32787;53.316;8.670;2024-03-06T03:17:34;2.60;90.00
46816;DHT22;32787;53.316;8.670;2024-03-06T03:20:00;2.70;90.10
46816;DHT22;32787;53.316;8.670;2024-03-06T03:22:28;2.70;90.20
46816;DHT22;32787;53.316;8.670;2024-03-06T03:24:53;2.60;90.20
46816;DHT22;32787;53.316;8.670;2024-03-06T03:27:19;2.70;90.30
46816;DHT22;32787;53.316;8.670;2024-03-06T03:29:44;2.70;90.40
46816;DHT22;32787;53.316;8.670;2024-03-06T03:32:10;2.70;90.30
46816;DHT22;32787;53.316;8.670;2024-03-06T03:34:36;2.70;90.40
46816;DHT22;32787;53.316;8.670;2024-03-06T03:37:02;2.80;90.40
46816;DHT22;32787;53.316;8.670;2024-03-06T03:39:27;2.80;90.20
46816;DHT22;32787;53.316;8.670;2024-03-06T03:41:53;2.80;90.30
46816;DHT22;32787;53.316;8.670;2024-03-06T03:44:19;2.80;90.20
46816;DHT22;32787;53.316;8.670;2024-03-06T03:46:45;2.80;90.30
46816;DHT22;32787;53.316;8.670;2024-03-06T03:49:11;2.90;90.20
46816;DHT22;32787;53.316;8.670;2024-03-06T03:51:38;2.90;90.30
46816;DHT22;32787;53.316;8.670;2024-03-06T03:54:04;2.80;90.40
46816;DHT22;32787;53.316;8.670;2024-03-06T03:56:30;2.80;90.50
46816;DHT22;32787;53.316;8.670;2024-03-06T03:58:56;2.90;90.30
46816;DHT22;32787;53.316;8.670;2024-03-06T04:01:23;2.90;90.30
46816;DHT22;32787;53.316;8.670;2024-03-06T04:03:49;2.80;90.30
46816;DHT22;32787;53.316;8.670;2024-03-06T04:06:14;2.80;90.30
46816;DHT22;32787;53.316;8.670;2024-03-06T04:08:40;2.80;90.40
46816;DHT22;32787;53.316;8.670;2024-03-06T04:11:06;2.80;90.40
46816;DHT22;32787;53.316;8.670;2024-03-06T04:13:36;2.80;90.40
46816;DHT22;32787;53.316;8.670;2024-03-06T04:16:02;2.80;90.50
46816;DHT22;32787;53.316;8.670;2024-03-06T04:18:29;2.80;90.50
46816;DHT22;32787;53.316;8.670;2024-03-06T04:21:05;2.80;90.50
46816;DHT22;32787;53.316;8.670;2024-03-06T04:23:32;2.90;90.40
46816;DHT22;32787;53.316;8.670;2024-03-06T04:25:59;2.90;90.50
46816;DHT22;32787;53.316;8.670;2024-03-06T04:28:25;2.90;90.40
46816;DHT22;32787;53.316;8.670;2024-03-06T04:30:51;2.90;90.20
46816;DHT22;32787;53.316;8.670;2024-03-06T04:33:16;2.90;90.20
46816;DHT22;32787;53.316;8.670;2024-03-06T04:35:42;2.80;90.30
46816;DHT22;32787;53.316;8.670;2024-03-06T04:38:08;2.80;90.30
46816;DHT22;32787;53.316;8.670;2024-03-06T04:40:34;2.80;90.40
46816;DHT22;32787;53.316;8.670;2024-03-06T04:43:00;2.80;90.30
46816;DHT22;32787;53.316;8.670;2024-03-06T04:45:26;2.80;90.50
46816;DHT22;32787;53.316;8.670;2024-03-06T04:47:52;2.80;90.60
46816;DHT22;32787;53.316;8.670;2024-03-06T04:50:17;2.80;90.50
46816;DHT22;32787;53.316;8.670;2024-03-06T04:52:43;2.80;90.50
46816;DHT22;32787;53.316;8.670;2024-03-06T04:55:10;2.80;90.50
46816;DHT22;32787;53.316;8.670;2024-03-06T04:57:37;2.80;90.70
46816;DHT22;32787;53.316;8.670;2024-03-06T05:00:03;2.80;90.70
46816;DHT22;32787;53.316;8.670;2024-03-06T05:02:32;2.80;90.80
46816;DHT22;32787;53.316;8.670;2024-03-06T05:05:00;2.90;90.70
46816;DHT22;32787;53.316;8.670;2024-03-06T05:07:27;2.80;90.70
46816;DHT22;32787;53.316;8.670;2024-03-06T05:09:53;2.90;90.70
46816;DHT22;32787;53.316;8.670;2024-03-06T05:12:19;2.90;90.70
46816;DHT22;32787;53.316;8.670;2024-03-06T05:14:45;2.80;90.70
46816;DHT22;32787;53.316;8.670;2024-03-06T05:17:10;2.80;90.90
46816;DHT22;32787;53.316;8.670;2024-03-06T05:19:36;2.80;90.90
46816;DHT22;32787;53.316;8.670;2024-03-06T05:22:02;2.70;91.00
46816;DHT22;32787;53.316;8.670;2024-03-06T05:24:29;2.70;91.10
46816;DHT22;32787;53.316;8.670;2024-03-06T05:26:54;2.70;91.10
46816;DHT22;32787;53.316;8.670;2024-03-06T05:29:20;2.70;91.10
46816;DHT22;32787;53.316;8.670;2024-03-06T05:31:46;2.70;91.20
46816;DHT22;32787;53.316;8.670;2024-03-06T05:34:11;2.80;91.10
46816;DHT22;32787;53.316;8.670;2024-03-06T05:36:37;2.80;91.00
46816;DHT22;32787;53.316;8.670;2024-03-06T05:39:03;2.80;91.10
46816;DHT22;32787;53.316;8.670;2024-03-06T05:41:33;2.70;91.10
46816;DHT22;32787;53.316;8.670;2024-03-06T05:43:59;2.70;91.20
46816;DHT22;32787;53.316;8.670;2024-03-06T05:46:24;2.60;91.20
46816;DHT22;32787;53.316;8.670;2024-03-06T05:48:51;2.60;91.20
46816;DHT22;32787;53.316;8.670;2024-03-06T05:51:17;2.70;91.30
46816;DHT22;32787;53.316;8.670;2024-03-06T05:53:43;2.70;91.20
46816;DHT22;32787;53.316;8.670;2024-03-06T05:56:09;2.60;91.20
46816;DHT22;32787;53.316;8.670;2024-03-06T05:58:35;2.60;91.20
46816;DHT22;32787;53.316;8.670;2024-03-06T06:01:01;2.60;91.20
46816;DHT22;32787;53.316;8.670;2024-03-06T06:03:29;2.60;91.30
46816;DHT22;32787;53.316;8.670;2024-03-06T06:05:55;2.60;91.20
46816;DHT22;32787;53.316;8.670;2024-03-06T06:08:21;2.60;91.10
46816;DHT22;32787;53.316;8.670;2024-03-06T06:10:46;2.60;91.20
46816;DHT22;32787;53.316;8.670;2024-03-06T06:13:12;2.60;91.20
46816;DHT22;32787;53.316;8.670;2024-03-06T06:15:38;2.60;91.20
46816;DHT22;32787;53.316;8.670;2024-03-06T06:18:04;2.60;91.20
46816;DHT22;32787;53.316;8.670;2024-03-06T06:20:30;2.60;91.20
46816;DHT22;32787;53.316;8.670;2024-03-06T06:22:56;2.60;91.30
46816;DHT22;32787;53.316;8.670;2024-03-06T06:25:22;2.70;91.30
46816;DHT22;32787;53.316;8.670;2024-03-06T06:27:48;2.70;91.20
46816;DHT22;32787;53.316;8.670;2024-03-06T06:30:19;2.80;91.20
46816;DHT22;32787;53.316;8.670;2024-03-06T06:32:44;2.70;91.30
46816;DHT22;32787;53.316;8.670;2024-03-06T06:35:10;2.70;91.30
46816;DHT22;32787;53.316;8.670;2024-03-06T06:37:37;2.60;91.40
46816;DHT22;32787;53.316;8.670;2024-03-06T06:40:03;2.60;91.50
46816;DHT22;32787;53.316;8.670;2024-03-06T06:42:35;2.60;91.60
46816;DHT22;32787;53.316;8.670;2024-03-06T06:45:01;2.60;91.70
46816;DHT22;32787;53.316;8.670;2024-03-06T06:47:28;2.60;91.80
46816;DHT22;32787;53.316;8.670;2024-03-06T06:49:54;2.60;91.90
46816;DHT22;32787;53.316;8.670;2024-03-06T06:52:20;2.70;91.90
46816;DHT22;32787;53.316;8.670;2024-03-06T06:54:46;2.60;91.90
46816;DHT22;32787;53.316;8.670;2024-03-06T06:57:11;2.70;91.90
46816;DHT22;32787;53.316;8.670;2024-03-06T06:59:37;2.60;92.00
46816;DHT22;32787;53.316;8.670;2024-03-06T07:02:03;2.70;92.10
46816;DHT22;32787;53.316;8.670;2024-03-06T07:04:29;2.70;92.10
46816;DHT22;32787;53.316;8.670;2024-03-06T07:06:55;2.80;92.00
46816;DHT22;32787;53.316;8.670;2024-03-06T07:09:21;2.90;91.90
46816;DHT22;32787;53.316;8.670;2024-03-06T07:11:46;2.90;91.80
46816;DHT22;32787;53.316;8.670;2024-03-06T07:14:13;3.00;91.70
46816;DHT22;32787;53.316;8.670;2024-03-06T07:16:42;3.10;91.40
46816;DHT22;32787;53.316;8.670;2024-03-06T07:19:09;3.20;91.10
46816;DHT22;32787;53.316;8.670;2024-03-06T07:21:34;3.30;90.90
46816;DHT22;32787;53.316;8.670;2024-03-06T07:24:00;3.30;90.70
46816;DHT22;32787;53.316;8.670;2024-03-06T07:26:25;3.40;90.50
46816;DHT22;32787;53.316;8.670;2024-03-06T07:28:51;3.50;89.90
46816;DHT22;32787;53.316;8.670;2024-03-06T07:31:18;3.70;89.60
46816;DHT22;32787;53.316;8.670;2024-03-06T07:33:44;3.80;89.00
46816;DHT22;32787;53.316;8.670;2024-03-06T07:36:09;4.00;88.50
46816;DHT22;32787;53.316;8.670;2024-03-06T07:38:35;4.30;87.80
46816;DHT22;32787;53.316;8.670;2024-03-06T07:41:01;4.40;87.20
46816;DHT22;32787;53.316;8.670;2024-03-06T07:43:27;4.60;86.70
46816;DHT22;32787;53.316;8.670;2024-03-06T07:45:52;4.80;85.90
46816;DHT22;32787;53.316;8.670;2024-03-06T07:48:19;4.90;85.60
46816;DHT22;32787;53.316;8.670;2024-03-06T07:50:45;5.00;85.20
46816;DHT22;32787;53.316;8.670;2024-03-06T07:53:11;5.30;84.70
46816;DHT22;32787;53.316;8.670;2024-03-06T07:55:36;5.10;84.00
46816;DHT22;32787;53.316;8.670;2024-03-06T07:58:04;5.30;84.10
46816;DHT22;32787;53.316;8.670;2024-03-06T08:00:30;5.40;83.40
46816;DHT22;32787;53.316;8.670;2024-03-06T08:02:57;5.30;83.60
46816;DHT22;32787;53.316;8.670;2024-03-06T08:05:22;4.90;84.10
46816;DHT22;32787;53.316;8.670;2024-03-06T08:07:48;4.40;85.60
46816;DHT22;32787;53.316;8.670;2024-03-06T08:10:14;4.40;86.60
46816;DHT22;32787;53.316;8.670;2024-03-06T08:12:44;4.30;86.40
46816;DHT22;32787;53.316;8.670;2024-03-06T08:15:12;4.20;86.60
46816;DHT22;32787;53.316;8.670;2024-03-06T08:17:40;4.40;87.20
46816;DHT22;32787;53.316;8.670;2024-03-06T08:20:07;4.40;86.50
46816;DHT22;32787;53.316;8.670;2024-03-06T08:22:43;4.40;86.60
46816;DHT22;32787;53.316;8.670;2024-03-06T08:25:10;4.60;85.90
46816;DHT22;32787;53.316;8.670;2024-03-06T08:27:38;5.10;84.80
46816;DHT22;32787;53.316;8.670;2024-03-06T08:30:04;5.40;83.50
46816;DHT22;32787;53.316;8.670;2024-03-06T08:32:34;5.80;82.10
46816;DHT22;32787;53.316;8.670;2024-03-06T08:35:04;6.00;81.90
46816;DHT22;32787;53.316;8.670;2024-03-06T08:37:33;6.10;82.10
46816;DHT22;32787;53.316;8.670;2024-03-06T08:40:00;6.10;81.50
46816;DHT22;32787;53.316;8.670;2024-03-06T08:42:27;5.70;81.90
46816;DHT22;32787;53.316;8.670;2024-03-06T08:44:52;5.40;82.20
46816;DHT22;32787;53.316;8.670;2024-03-06T08:47:18;5.00;83.30
46816;DHT22;32787;53.316;8.670;2024-03-06T08:49:44;4.70;84.70
46816;DHT22;32787;53.316;8.670;2024-03-06T08:52:10;4.50;85.60
46816;DHT22;32787;53.316;8.670;2024-03-06T08:54:36;4.60;85.90
46816;DHT22;32787;53.316;8.670;2024-03-06T08:57:02;4.70;86.40
46816;DHT22;32787;53.316;8.670;2024-03-06T08:59:29;4.70;85.90
46816;DHT22;32787;53.316;8.670;2024-03-06T09:01:55;5.00;86.30
46816;DHT22;32787;53.316;8.670;2024-03-06T09:04:24;5.30;84.60
46816;DHT22;32787;53.316;8.670;2024-03-06T09:06:49;5.30;84.10
46816;DHT22;32787;53.316;8.670;2024-03-06T09:09:15;5.20;84.50
46816;DHT22;32787;53.316;8.670;2024-03-06T09:11:41;5.20;84.80
46816;DHT22;32787;53.316;8.670;2024-03-06T09:14:07;5.20;84.30
46816;DHT22;32787;53.316;8.670;2024-03-06T09:16:35;5.20;84.70
46816;DHT22;32787;53.316;8.670;2024-03-06T09:19:00;5.20;83.90
46816;DHT22;32787;53.316;8.670;2024-03-06T09:21:27;5.20;83.30
46816;DHT22;32787;53.316;8.670;2024-03-06T09:23:53;5.30;83.80
46816;DHT22;32787;53.316;8.670;2024-03-06T09:26:18;5.60;83.40
46816;DHT22;32787;53.316;8.670;2024-03-06T09:28:44;5.60;82.70
46816;DHT22;32787;53.316;8.670;2024-03-06T09:31:09;5.60;82.80
46816;DHT22;32787;53.316;8.670;2024-03-06T09:33:39;5.50;82.90
46816;DHT22;32787;53.316;8.670;2024-03-06T09:36:05;5.50;82.80
46816;DHT22;32787;53.316;8.670;2024-03-06T09:38:30;5.60;83.50
46816;DHT22;32787;53.316;8.670;2024-03-06T09:40:57;5.80;82.20
46816;DHT22;32787;53.316;8.670;2024-03-06T09:43:22;5.80;81.90
46816;DHT22;32787;53.316;8.670;2024-03-06T09:45:50;5.70;81.70
46816;DHT22;32787;53.316;8.670;2024-03-06T09:48:19;5.70;81.30
46816;DHT22;32787;53.316;8.670;2024-03-06T09:50:46;5.70;82.00
46816;DHT22;32787;53.316;8.670;2024-03-06T09:53:16;5.70;81.10
46816;DHT22;32787;53.316;8.670;2024-03-06T09:55:42;5.90;81.60
46816;DHT22;32787;53.316;8.670;2024-03-06T09:58:08;6.10;80.40
46816;DHT22;32787;53.316;8.670;2024-03-06T10:00:35;6.10;80.20
46816;DHT22;32787;53.316;8.670;2024-03-06T10:03:02;6.30;80.00
46816;DHT22;32787;53.316;8.670;2024-03-06T10:05:30;6.30;79.60
46816;DHT22;32787;53.316;8.670;2024-03-06T10:08:00;6.40;81.20
46816;DHT22;32787;53.316;8.670;2024-03-06T10:10:27;6.20;80.10
46816;DHT22;32787;53.316;8.670;2024-03-06T10:12:53;6.20;80.60
46816;DHT22;32787;53.316;8.670;2024-03-06T10:15:19;6.10;80.30
46816;DHT22;32787;53.316;8.670;2024-03-06T10:17:45;6.10;80.70
46816;DHT22;32787;53.316;8.670;2024-03-06T10:20:22;6.30;80.50
46816;DHT22;32787;53.316;8.670;2024-03-06T10:22:53;6.40;79.80
46816;DHT22;32787;53.316;8.670;2024-03-06T10:25:22;6.50;78.60
46816;DHT22;32787;53.316;8.670;2024-03-06T10:28:10;6.70;79.30
46816;DHT22;32787;53.316;8.670;2024-03-06T10:30:40;6.80;79.10
46816;DHT22;32787;53.316;8.670;2024-03-06T10:33:13;6.90;78.30
46816;DHT22;32787;53.316;8.670;2024-03-06T10:35:41;7.00;77.60
46816;DHT22;32787;53.316;8.670;2024-03-06T10:38:08;7.10;76.90
46816;DHT22;32787;53.316;8.670;2024-03-06T10:40:35;7.00;76.50
46816;DHT22;32787;53.316;8.670;2024-03-06T10:43:02;7.00;76.50
46816;DHT22;32787;53.316;8.670;2024-03-06T10:47:58;7.10;77.40
46816;DHT22;32787;53.316;8.670;2024-03-06T10:50:25;7.30;76.10
46816;DHT22;32787;53.316;8.670;2024-03-06T10:52:53;7.30;75.80
46816;DHT22;32787;53.316;8.670;2024-03-06T10:55:23;7.50;75.10
46816;DHT22;32787;53.316;8.670;2024-03-06T10:57:52;7.50;75.40
46816;DHT22;32787;53.316;8.670;2024-03-06T11:00:19;7.30;75.50
46816;DHT22;32787;53.316;8.670;2024-03-06T11:02:48;7.40;76.00
46816;DHT22;32787;53.316;8.670;2024-03-06T11:05:16;7.50;75.30
46816;DHT22;32787;53.316;8.670;2024-03-06T11:07:42;7.50;75.20
46816;DHT22;32787;53.316;8.670;2024-03-06T11:10:09;7.50;74.20
46816;DHT22;32787;53.316;8.670;2024-03-06T11:12:42;7.50;75.50
46816;DHT22;32787;53.316;8.670;2024-03-06T11:15:16;7.60;74.90
46816;DHT22;32787;53.316;8.670;2024-03-06T11:17:42;7.60;74.60
46816;DHT22;32787;53.316;8.670;2024-03-06T11:20:13;7.80;73.80
46816;DHT22;32787;53.316;8.670;2024-03-06T11:28:17;7.80;74.70
46816;DHT22;32787;53.316;8.670;2024-03-06T11:33:14;7.90;73.80
46816;DHT22;32787;53.316;8.670;2024-03-06T11:35:42;8.00;73.30
46816;DHT22;32787;53.316;8.670;2024-03-06T11:38:10;8.20;73.80
46816;DHT22;32787;53.316;8.670;2024-03-06T11:40:48;8.10;72.60
46816;DHT22;32787;53.316;8.670;2024-03-06T11:43:26;8.10;73.50
46816;DHT22;32787;53.316;8.670;2024-03-06T11:45:53;8.10;74.00
46816;DHT22;32787;53.316;8.670;2024-03-06T11:48:18;8.30;74.60
46816;DHT22;32787;53.316;8.670;2024-03-06T11:50:47;8.40;72.20
46816;DHT22;32787;53.316;8.670;2024-03-06T11:53:14;8.50;71.20
46816;DHT22;32787;53.316;8.670;2024-03-06T11:55:40;8.50;72.70
46816;DHT22;32787;53.316;8.670;2024-03-06T11:58:05;8.40;72.60
46816;DHT22;32787;53.316;8.670;2024-03-06T12:00:33;8.60;72.50
46816;DHT22;32787;53.316;8.670;2024-03-06T12:02:59;8.60;71.40
46816;DHT22;32787;53.316;8.670;2024-03-06T12:05:24;8.80;70.80
46816;DHT22;32787;53.316;8.670;2024-03-06T12:07:52;9.00;70.80
46816;DHT22;32787;53.316;8.670;2024-03-06T12:10:18;9.00;69.40
46816;DHT22;32787;53.316;8.670;2024-03-06T12:12:44;9.00;70.10
46816;DHT22;32787;53.316;8.670;2024-03-06T12:15:11;8.80;70.00
46816;DHT22;32787;53.316;8.670;2024-03-06T12:17:48;8.80;71.10
46816;DHT22;32787;53.316;8.670;2024-03-06T12:20:17;8.80;70.40
46816;DHT22;32787;53.316;8.670;2024-03-06T12:22:51;8.70;71.00
46816;DHT22;32787;53.316;8.670;2024-03-06T12:25:25;8.70;71.00
46816;DHT22;32787;53.316;8.670;2024-03-06T12:27:52;8.60;71.80
46816;DHT22;32787;53.316;8.670;2024-03-06T12:30:22;8.60;70.20
46816;DHT22;32787;53.316;8.670;2024-03-06T12:33:00;8.80;70.80
46816;DHT22;32787;53.316;8.670;2024-03-06T12:35:30;8.90;70.40
46816;DHT22;32787;53.316;8.670;2024-03-06T12:37:56;9.00;69.70
46816;DHT22;32787;53.316;8.670;2024-03-06T12:40:22;9.00;69.20
46816;DHT22;32787;53.316;8.670;2024-03-06T12:42:48;8.90;69.30
46816;DHT22;32787;53.316;8.670;2024-03-06T12:45:15;8.80;71.00
46816;DHT22;32787;53.316;8.670;2024-03-06T12:47:46;8.90;69.70
46816;DHT22;32787;53.316;8.670;2024-03-06T12:50:13;8.90;70.40
46816;DHT22;32787;53.316;8.670;2024-03-06T12:52:40;8.90;69.60
46816;DHT22;32787;53.316;8.670;2024-03-06T12:55:06;8.90;69.60
46816;DHT22;32787;53.316;8.670;2024-03-06T12:57:33;9.00;69.80
46816;DHT22;32787;53.316;8.670;2024-03-06T12:59:58;9.00;69.30
46816;DHT22;32787;53.316;8.670;2024-03-06T13:02:24;9.10;69.70
46816;DHT22;32787;53.316;8.670;2024-03-06T13:04:50;9.10;69.70
46816;DHT22;32787;53.316;8.670;2024-03-06T13:07:16;9.00;70.30
46816;DHT22;32787;53.316;8.670;2024-03-06T13:09:42;9.10;70.40
46816;DHT22;32787;53.316;8.670;2024-03-06T13:12:08;9.10;70.10
46816;DHT22;32787;53.316;8.670;2024-03-06T13:14:33;9.10;69.50
46816;DHT22;32787;53.316;8.670;2024-03-06T13:17:00;9.10;69.30
46816;DHT22;32787;53.316;8.670;2024-03-06T13:19:26;9.20;69.80
46816;DHT22;32787;53.316;8.670;2024-03-06T13:21:52;9.10;69.80
46816;DHT22;32787;53.316;8.670;2024-03-06T13:24:18;9.20;69.20
46816;DHT22;32787;53.316;8.670;2024-03-06T13:26:45;9.10;68.70
46816;DHT22;32787;53.316;8.670;2024-03-06T13:29:11;9.30;70.00
46816;DHT22;32787;53.316;8.670;2024-03-06T13:31:36;9.40;69.10
46816;DHT22;32787;53.316;8.670;2024-03-06T13:34:03;9.40;69.70
46816;DHT22;32787;53.316;8.670;2024-03-06T13:36:29;9.50;69.10
46816;DHT22;32787;53.316;8.670;2024-03-06T13:38:56;9.50;69.20
46816;DHT22;32787;53.316;8.670;2024-03-06T13:41:22;9.60;68.70
46816;DHT22;32787;53.316;8.670;2024-03-06T13:43:48;9.70;68.50
46816;DHT22;32787;53.316;8.670;2024-03-06T13:46:13;9.70;67.90
46816;DHT22;32787;53.316;8.670;2024-03-06T13:48:39;9.60;68.60
46816;DHT22;32787;53.316;8.670;2024-03-06T13:51:05;9.60;67.40
46816;DHT22;32787;53.316;8.670;2024-03-06T13:53:31;9.60;68.30
46816;DHT22;32787;53.316;8.670;2024-03-06T13:55:57;9.60;68.60
46816;DHT22;32787;53.316;8.670;2024-03-06T13:58:23;9.80;68.90
46816;DHT22;32787;53.316;8.670;2024-03-06T14:00:49;9.90;68.60
46816;DHT22;32787;53.316;8.670;2024-03-06T14:03:14;9.90;68.30
46816;DHT22;32787;53.316;8.670;2024-03-06T14:05:40;9.90;68.00
46816;DHT22;32787;53.316;8.670;2024-03-06T14:08:06;9.90;68.20
46816;DHT22;32787;53.316;8.670;2024-03-06T14:10:33;9.80;67.60
46816;DHT22;32787;53.316;8.670;2024-03-06T14:12:59;9.80;68.60
46816;DHT22;32787;53.316;8.670;2024-03-06T14:15:25;9.70;68.50
46816;DHT22;32787;53.316;8.670;2024-03-06T14:17:52;9.70;67.90
46816;DHT22;32787;53.316;8.670;2024-03-06T14:20:20;9.70;68.20
46816;DHT22;32787;53.316;8.670;2024-03-06T14:22:45;9.90;69.20
46816;DHT22;32787;53.316;8.670;2024-03-06T14:25:11;9.90;68.90
46816;DHT22;32787;53.316;8.670;2024-03-06T14:27:37;9.90;67.50
46816;DHT22;32787;53.316;8.670;2024-03-06T14:30:06;9.80;67.90
46816;DHT22;32787;53.316;8.670;2024-03-06T14:32:40;9.80;69.10
46816;DHT22;32787;53.316;8.670;2024-03-06T14:35:06;9.80;69.10
46816;DHT22;32787;53.316;8.670;2024-03-06T14:37:32;9.90;68.70
46816;DHT22;32787;53.316;8.670;2024-03-06T14:39:57;9.90;68.60
46816;DHT22;32787;53.316;8.670;2024-03-06T14:42:23;10.00;68.10
46816;DHT22;32787;53.316;8.670;2024-03-06T14:44:49;10.10;67.30
46816;DHT22;32787;53.316;8.670;2024-03-06T14:47:15;10.00;68.40
46816;DHT22;32787;53.316;8.670;2024-03-06T14:49:42;10.10;67.60
46816;DHT22;32787;53.316;8.670;2024-03-06T14:52:10;10.00;67.50
46816;DHT22;32787;53.316;8.670;2024-03-06T14:54:36;10.00;67.60
46816;DHT22;32787;53.316;8.670;2024-03-06T14:57:02;9.80;68.60
46816;DHT22;32787;53.316;8.670;2024-03-06T14:59:27;9.80;68.60
46816;DHT22;32787;53.316;8.670;2024-03-06T15:01:53;9.60;68.50
46816;DHT22;32787;53.316;8.670;2024-03-06T15:04:19;9.60;68.40
46816;DHT22;32787;53.316;8.670;2024-03-06T15:06:46;9.60;68.90
46816;DHT22;32787;53.316;8.670;2024-03-06T15:09:12;9.60;67.80
46816;DHT22;32787;53.316;8.670;2024-03-06T15:11:41;9.60;68.80
46816;DHT22;32787;53.316;8.670;2024-03-06T15:14:07;9.80;68.10
46816;DHT22;32787;53.316;8.670;2024-03-06T15:16:34;9.80;67.70
46816;DHT22;32787;53.316;8.670;2024-03-06T15:19:00;9.80;67.50
46816;DHT22;32787;53.316;8.670;2024-03-06T15:21:29;9.80;67.10
46816;DHT22;32787;53.316;8.670;2024-03-06T15:23:55;9.80;67.40
46816;DHT22;32787;53.316;8.670;2024-03-06T15:26:20;9.80;67.50
46816;DHT22;32787;53.316;8.670;2024-03-06T15:28:46;9.80;68.00
46816;DHT22;32787;53.316;8.670;2024-03-06T15:31:12;9.80;67.70
46816;DHT22;32787;53.316;8.670;2024-03-06T15:33:37;9.90;67.20
46816;DHT22;32787;53.316;8.670;2024-03-06T15:36:03;9.90;67.20
46816;DHT22;32787;53.316;8.670;2024-03-06T15:38:29;9.90;67.70
46816;DHT22;32787;53.316;8.670;2024-03-06T15:40:55;9.80;67.50
46816;DHT22;32787;53.316;8.670;2024-03-06T15:43:20;9.70;68.30
46816;DHT22;32787;53.316;8.670;2024-03-06T15:45:46;9.60;68.80
46816;DHT22;32787;53.316;8.670;2024-03-06T15:48:11;9.60;70.00
46816;DHT22;32787;53.316;8.670;2024-03-06T15:50:43;9.40;68.70
46816;DHT22;32787;53.316;8.670;2024-03-06T15:53:09;9.40;69.30